sensor_id;sensor_type;location;lat;lon;timestamp;P1;durP1;ratioP1;P2;durP2;ratioP2
23232;SDS011;11785;49.500;8.288;2023-04-03T00:01:09;4.32;;;2.45;;
23232;SDS011;11785;49.500;8.288;2023-04-03T00:03:35;4.68;;;2.55;;
23232;SDS011;11785;49.500;8.288;2023-04-03T00:06:01;3.88;;;2.50;;
23232;SDS011;11785;49.500;8.288;2023-04-03T00:08:28;3.45;;;2.50;;
23232;SDS011;11785;49.500;8.288;2023-04-03T00:10:55;4.97;;;3.05;;
23232;SDS011;11785;49.500;8.288;2023-04-03T00:13:21;4.15;;;2.63;;
23232;SDS011;11785;49.500;8.288;2023-04-03T00:15:47;2.97;;;2.38;;
23232;SDS011;11785;49.500;8.288;2023-04-03T00:18:13;5.65;;;2.50;;
23232;SDS011;11785;49.500;8.288;2023-04-03T00:20:39;4.85;;;2.08;;
23232;SDS011;11785;49.500;8.288;2023-04-03T00:23:04;3.08;;;2.42;;
23232;SDS011;11785;49.500;8.288;2023-04-03T00:25:30;3.75;;;2.80;;
23232;SDS011;11785;49.500;8.288;2023-04-03T00:27:56;2.90;;;2.60;;
23232;SDS011;11785;49.500;8.288;2023-04-03T00:30:21;2.83;;;2.40;;
23232;SDS011;11785;49.500;8.288;2023-04-03T00:32:48;4.95;;;2.95;;
23232;SDS011;11785;49.500;8.288;2023-04-03T00:35:15;2.85;;;2.60;;
23232;SDS011;11785;49.500;8.288;2023-04-03T00:37:41;3.35;;;2.38;;
23232;SDS011;11785;49.500;8.288;2023-04-03T00:40:07;3.60;;;2.45;;
23232;SDS011;11785;49.500;8.288;2023-04-03T00:42:35;3.78;;;2.33;;
23232;SDS011;11785;49.500;8.288;2023-04-03T00:47:27;6.07;;;2.60;;
23232;SDS011;11785;49.500;8.288;2023-04-03T00:49:55;5.18;;;2.60;;
23232;SDS011;11785;49.500;8.288;2023-04-03T00:52:23;4.90;;;2.60;;
23232;SDS011;11785;49.500;8.288;2023-04-03T00:55:11;3.13;;;2.70;;
23232;SDS011;11785;49.500;8.288;2023-04-03T00:57:39;4.13;;;2.90;;
23232;SDS011;11785;49.500;8.288;2023-04-03T01:00:08;4.80;;;2.58;;
23232;SDS011;11785;49.500;8.288;2023-04-03T01:02:37;4.13;;;2.97;;
23232;SDS011;11785;49.500;8.288;2023-04-03T01:05:05;3.30;;;2.55;;
23232;SDS011;11785;49.500;8.288;2023-04-03T01:07:32;5.90;;;2.65;;
23232;SDS011;11785;49.500;8.288;2023-04-03T01:10:03;4.05;;;2.58;;
23232;SDS011;11785;49.500;8.288;2023-04-03T01:12:33;4.25;;;2.92;;
23232;SDS011;11785;49.500;8.288;2023-04-03T01:15:07;7.05;;;3.45;;
23232;SDS011;11785;49.500;8.288;2023-04-03T01:28:17;4.85;;;3.47;;
23232;SDS011;11785;49.500;8.288;2023-04-03T01:33:56;7.35;;;3.92;;
23232;SDS011;11785;49.500;8.288;2023-04-03T01:36:27;5.97;;;4.10;;
23232;SDS011;11785;49.500;8.288;2023-04-03T01:38:54;6.28;;;3.78;;
23232;SDS011;11785;49.500;8.288;2023-04-03T01:41:21;5.50;;;4.05;;
23232;SDS011;11785;49.500;8.288;2023-04-03T01:43:47;8.27;;;4.40;;
23232;SDS011;11785;49.500;8.288;2023-04-03T01:46:14;5.50;;;3.70;;
23232;SDS011;11785;49.500;8.288;2023-04-03T01:48:41;5.45;;;4.05;;
23232;SDS011;11785;49.500;8.288;2023-04-03T01:51:07;6.97;;;3.75;;
23232;SDS011;11785;49.500;8.288;2023-04-03T01:53:33;4.90;;;3.60;;
23232;SDS011;11785;49.500;8.288;2023-04-03T01:55:58;6.03;;;4.07;;
23232;SDS011;11785;49.500;8.288;2023-04-03T01:58:24;5.68;;;4.13;;
23232;SDS011;11785;49.500;8.288;2023-04-03T02:00:50;8.60;;;4.07;;
23232;SDS011;11785;49.500;8.288;2023-04-03T02:03:16;6.47;;;4.00;;
23232;SDS011;11785;49.500;8.288;2023-04-03T02:05:42;4.75;;;3.47;;
23232;SDS011;11785;49.500;8.288;2023-04-03T02:08:07;7.32;;;4.38;;
23232;SDS011;11785;49.500;8.288;2023-04-03T02:10:33;6.47;;;4.00;;
23232;SDS011;11785;49.500;8.288;2023-04-03T02:12:58;4.95;;;3.30;;
23232;SDS011;11785;49.500;8.288;2023-04-03T02:15:24;7.35;;;3.80;;
23232;SDS011;11785;49.500;8.288;2023-04-03T02:17:49;5.82;;;3.58;;
23232;SDS011;11785;49.500;8.288;2023-04-03T02:20:15;5.25;;;3.88;;
23232;SDS011;11785;49.500;8.288;2023-04-03T02:22:41;4.35;;;3.35;;
23232;SDS011;11785;49.500;8.288;2023-04-03T02:25:06;7.28;;;3.83;;
23232;SDS011;11785;49.500;8.288;2023-04-03T02:27:32;8.15;;;3.88;;
23232;SDS011;11785;49.500;8.288;2023-04-03T02:29:58;7.80;;;3.60;;
23232;SDS011;11785;49.500;8.288;2023-04-03T02:32:23;5.82;;;3.53;;
23232;SDS011;11785;49.500;8.288;2023-04-03T02:34:49;7.30;;;3.75;;
23232;SDS011;11785;49.500;8.288;2023-04-03T02:37:15;6.22;;;3.50;;
23232;SDS011;11785;49.500;8.288;2023-04-03T02:39:40;5.03;;;3.50;;
23232;SDS011;11785;49.500;8.288;2023-04-03T02:42:06;7.18;;;4.07;;
23232;SDS011;11785;49.500;8.288;2023-04-03T02:44:32;6.07;;;3.88;;
23232;SDS011;11785;49.500;8.288;2023-04-03T02:46:58;7.47;;;3.50;;
23232;SDS011;11785;49.500;8.288;2023-04-03T02:49:23;6.03;;;3.75;;
23232;SDS011;11785;49.500;8.288;2023-04-03T02:51:49;4.55;;;3.20;;
23232;SDS011;11785;49.500;8.288;2023-04-03T02:54:16;6.88;;;3.55;;
23232;SDS011;11785;49.500;8.288;2023-04-03T02:56:41;6.82;;;3.58;;
23232;SDS011;11785;49.500;8.288;2023-04-03T02:59:07;5.80;;;3.47;;
23232;SDS011;11785;49.500;8.288;2023-04-03T03:01:32;6.60;;;3.58;;
23232;SDS011;11785;49.500;8.288;2023-04-03T03:04:01;8.05;;;3.75;;
23232;SDS011;11785;49.500;8.288;2023-04-03T03:06:27;5.10;;;3.72;;
23232;SDS011;11785;49.500;8.288;2023-04-03T03:08:53;5.43;;;3.50;;
23232;SDS011;11785;49.500;8.288;2023-04-03T03:11:18;7.57;;;3.58;;
23232;SDS011;11785;49.500;8.288;2023-04-03T03:13:44;5.32;;;3.97;;
23232;SDS011;11785;49.500;8.288;2023-04-03T03:16:10;5.35;;;3.63;;
23232;SDS011;11785;49.500;8.288;2023-04-03T03:18:35;8.40;;;3.72;;
23232;SDS011;11785;49.500;8.288;2023-04-03T03:21:01;6.90;;;3.65;;
23232;SDS011;11785;49.500;8.288;2023-04-03T03:23:29;4.10;;;2.83;;
23232;SDS011;11785;49.500;8.288;2023-04-03T03:26:07;6.15;;;3.47;;
23232;SDS011;11785;49.500;8.288;2023-04-03T03:28:35;7.05;;;3.20;;
23232;SDS011;11785;49.500;8.288;2023-04-03T03:31:02;5.13;;;3.42;;
23232;SDS011;11785;49.500;8.288;2023-04-03T03:33:28;6.30;;;3.25;;
23232;SDS011;11785;49.500;8.288;2023-04-03T03:35:54;9.13;;;4.22;;
23232;SDS011;11785;49.500;8.288;2023-04-03T03:38:19;8.18;;;4.18;;
23232;SDS011;11785;49.500;8.288;2023-04-03T03:40:49;5.18;;;3.70;;
23232;SDS011;11785;49.500;8.288;2023-04-03T03:43:15;5.20;;;3.58;;
23232;SDS011;11785;49.500;8.288;2023-04-03T03:45:41;6.95;;;3.90;;
23232;SDS011;11785;49.500;8.288;2023-04-03T03:48:07;4.28;;;3.47;;
23232;SDS011;11785;49.500;8.288;2023-04-03T03:50:33;7.57;;;3.35;;
23232;SDS011;11785;49.500;8.288;2023-04-03T03:52:58;4.07;;;3.17;;
23232;SDS011;11785;49.500;8.288;2023-04-03T03:55:24;6.43;;;3.83;;
23232;SDS011;11785;49.500;8.288;2023-04-03T03:57:50;8.20;;;4.28;;
23232;SDS011;11785;49.500;8.288;2023-04-03T04:00:16;5.57;;;4.07;;
23232;SDS011;11785;49.500;8.288;2023-04-03T04:02:42;6.88;;;3.75;;
23232;SDS011;11785;49.500;8.288;2023-04-03T04:05:07;7.38;;;3.78;;
23232;SDS011;11785;49.500;8.288;2023-04-03T04:07:33;6.63;;;3.80;;
23232;SDS011;11785;49.500;8.288;2023-04-03T04:09:59;5.68;;;3.90;;
23232;SDS011;11785;49.500;8.288;2023-04-03T04:12:24;6.57;;;4.15;;
23232;SDS011;11785;49.500;8.288;2023-04-03T04:14:50;5.60;;;3.78;;
23232;SDS011;11785;49.500;8.288;2023-04-03T04:17:15;9.93;;;4.05;;
23232;SDS011;11785;49.500;8.288;2023-04-03T04:19:41;5.22;;;3.78;;
23232;SDS011;11785;49.500;8.288;2023-04-03T04:22:07;6.60;;;4.10;;
23232;SDS011;11785;49.500;8.288;2023-04-03T04:24:32;5.55;;;3.80;;
23232;SDS011;11785;49.500;8.288;2023-04-03T04:26:58;6.07;;;4.28;;
23232;SDS011;11785;49.500;8.288;2023-04-03T04:29:23;5.70;;;3.92;;
23232;SDS011;11785;49.500;8.288;2023-04-03T04:31:49;6.35;;;3.78;;
23232;SDS011;11785;49.500;8.288;2023-04-03T04:34:15;4.38;;;3.80;;
23232;SDS011;11785;49.500;8.288;2023-04-03T04:36:40;7.15;;;4.55;;
23232;SDS011;11785;49.500;8.288;2023-04-03T04:39:07;7.50;;;4.68;;
23232;SDS011;11785;49.500;8.288;2023-04-03T04:41:32;7.32;;;4.53;;
23232;SDS011;11785;49.500;8.288;2023-04-03T04:43:59;7.05;;;3.97;;
23232;SDS011;11785;49.500;8.288;2023-04-03T04:46:25;5.88;;;3.95;;
23232;SDS011;11785;49.500;8.288;2023-04-03T04:48:50;5.50;;;3.95;;
23232;SDS011;11785;49.500;8.288;2023-04-03T04:51:16;5.72;;;3.47;;
23232;SDS011;11785;49.500;8.288;2023-04-03T04:53:41;6.03;;;3.63;;
23232;SDS011;11785;49.500;8.288;2023-04-03T04:56:07;7.13;;;4.07;;
23232;SDS011;11785;49.500;8.288;2023-04-03T04:58:33;7.70;;;3.80;;
23232;SDS011;11785;49.500;8.288;2023-04-03T05:01:02;7.07;;;4.15;;
23232;SDS011;11785;49.500;8.288;2023-04-03T05:03:30;7.10;;;4.25;;
23232;SDS011;11785;49.500;8.288;2023-04-03T05:05:56;7.53;;;3.78;;
23232;SDS011;11785;49.500;8.288;2023-04-03T05:08:21;7.35;;;4.45;;
23232;SDS011;11785;49.500;8.288;2023-04-03T05:10:47;6.82;;;4.35;;
23232;SDS011;11785;49.500;8.288;2023-04-03T05:13:13;6.32;;;4.10;;
23232;SDS011;11785;49.500;8.288;2023-04-03T05:15:38;7.20;;;4.07;;
23232;SDS011;11785;49.500;8.288;2023-04-03T05:18:04;6.78;;;3.90;;
23232;SDS011;11785;49.500;8.288;2023-04-03T05:20:30;4.95;;;3.83;;
23232;SDS011;11785;49.500;8.288;2023-04-03T05:22:56;5.75;;;3.95;;
23232;SDS011;11785;49.500;8.288;2023-04-03T05:25:22;4.68;;;3.17;;
23232;SDS011;11785;49.500;8.288;2023-04-03T05:27:48;4.97;;;3.28;;
23232;SDS011;11785;49.500;8.288;2023-04-03T05:30:13;7.40;;;3.30;;
23232;SDS011;11785;49.500;8.288;2023-04-03T05:32:39;8.63;;;3.80;;
23232;SDS011;11785;49.500;8.288;2023-04-03T05:35:05;5.10;;;3.80;;
23232;SDS011;11785;49.500;8.288;2023-04-03T05:37:32;5.72;;;3.55;;
23232;SDS011;11785;49.500;8.288;2023-04-03T05:39:58;6.13;;;3.40;;
23232;SDS011;11785;49.500;8.288;2023-04-03T05:42:23;6.20;;;3.67;;
23232;SDS011;11785;49.500;8.288;2023-04-03T05:44:49;6.47;;;3.55;;
23232;SDS011;11785;49.500;8.288;2023-04-03T05:47:15;5.50;;;3.50;;
23232;SDS011;11785;49.500;8.288;2023-04-03T05:49:41;5.55;;;3.75;;
23232;SDS011;11785;49.500;8.288;2023-04-03T05:52:23;7.43;;;3.92;;
23232;SDS011;11785;49.500;8.288;2023-04-03T05:54:52;7.25;;;3.40;;
23232;SDS011;11785;49.500;8.288;2023-04-03T05:57:18;6.88;;;3.53;;
23232;SDS011;11785;49.500;8.288;2023-04-03T05:59:45;7.70;;;3.65;;
23232;SDS011;11785;49.500;8.288;2023-04-03T06:02:12;6.05;;;3.28;;
23232;SDS011;11785;49.500;8.288;2023-04-03T06:04:38;6.45;;;3.15;;
23232;SDS011;11785;49.500;8.288;2023-04-03T06:07:04;4.38;;;3.05;;
23232;SDS011;11785;49.500;8.288;2023-04-03T06:09:30;8.80;;;5.97;;
23232;SDS011;11785;49.500;8.288;2023-04-03T06:11:56;6.22;;;3.67;;
23232;SDS011;11785;49.500;8.288;2023-04-03T06:14:23;3.85;;;2.65;;
23232;SDS011;11785;49.500;8.288;2023-04-03T06:16:50;6.70;;;2.97;;
23232;SDS011;11785;49.500;8.288;2023-04-03T06:19:16;5.18;;;2.60;;
23232;SDS011;11785;49.500;8.288;2023-04-03T06:21:41;7.00;;;2.70;;
23232;SDS011;11785;49.500;8.288;2023-04-03T06:24:11;5.07;;;3.15;;
23232;SDS011;11785;49.500;8.288;2023-04-03T06:26:39;4.32;;;3.15;;
23232;SDS011;11785;49.500;8.288;2023-04-03T06:29:05;5.75;;;2.90;;
23232;SDS011;11785;49.500;8.288;2023-04-03T06:31:30;5.70;;;2.97;;
23232;SDS011;11785;49.500;8.288;2023-04-03T06:33:56;5.40;;;2.47;;
23232;SDS011;11785;49.500;8.288;2023-04-03T06:36:21;5.13;;;2.67;;
23232;SDS011;11785;49.500;8.288;2023-04-03T06:38:47;8.93;;;3.05;;
23232;SDS011;11785;49.500;8.288;2023-04-03T06:41:13;4.03;;;2.55;;
23232;SDS011;11785;49.500;8.288;2023-04-03T06:43:41;5.95;;;2.47;;
23232;SDS011;11785;49.500;8.288;2023-04-03T06:46:10;6.60;;;3.03;;
23232;SDS011;11785;49.500;8.288;2023-04-03T06:48:41;5.10;;;2.58;;
23232;SDS011;11785;49.500;8.288;2023-04-03T06:51:15;6.78;;;3.35;;
23232;SDS011;11785;49.500;8.288;2023-04-03T06:53:43;5.63;;;2.85;;
23232;SDS011;11785;49.500;8.288;2023-04-03T06:56:09;5.15;;;3.03;;
23232;SDS011;11785;49.500;8.288;2023-04-03T06:58:35;6.20;;;2.50;;
23232;SDS011;11785;49.500;8.288;2023-04-03T07:01:01;7.53;;;2.72;;
23232;SDS011;11785;49.500;8.288;2023-04-03T07:03:26;9.15;;;2.45;;
23232;SDS011;11785;49.500;8.288;2023-04-03T07:05:52;4.72;;;2.90;;
23232;SDS011;11785;49.500;8.288;2023-04-03T07:08:18;6.97;;;2.97;;
23232;SDS011;11785;49.500;8.288;2023-04-03T07:10:43;3.95;;;2.22;;
23232;SDS011;11785;49.500;8.288;2023-04-03T07:13:09;10.45;;;2.67;;
23232;SDS011;11785;49.500;8.288;2023-04-03T07:15:34;9.55;;;2.78;;
23232;SDS011;11785;49.500;8.288;2023-04-03T07:18:01;5.32;;;2.58;;
23232;SDS011;11785;49.500;8.288;2023-04-03T07:20:27;6.50;;;2.83;;
23232;SDS011;11785;49.500;8.288;2023-04-03T07:22:53;7.97;;;2.78;;
23232;SDS011;11785;49.500;8.288;2023-04-03T07:25:18;6.45;;;2.65;;
23232;SDS011;11785;49.500;8.288;2023-04-03T07:27:44;4.90;;;2.70;;
23232;SDS011;11785;49.500;8.288;2023-04-03T07:30:10;4.45;;;2.78;;
23232;SDS011;11785;49.500;8.288;2023-04-03T07:32:36;3.88;;;2.40;;
23232;SDS011;11785;49.500;8.288;2023-04-03T07:35:02;5.47;;;2.60;;
23232;SDS011;11785;49.500;8.288;2023-04-03T07:37:28;5.43;;;2.78;;
23232;SDS011;11785;49.500;8.288;2023-04-03T07:39:53;3.85;;;2.33;;
23232;SDS011;11785;49.500;8.288;2023-04-03T07:42:20;6.72;;;2.78;;
23232;SDS011;11785;49.500;8.288;2023-04-03T07:44:46;4.78;;;2.58;;
23232;SDS011;11785;49.500;8.288;2023-04-03T07:47:12;5.40;;;3.15;;
23232;SDS011;11785;49.500;8.288;2023-04-03T07:49:40;6.70;;;2.95;;
23232;SDS011;11785;49.500;8.288;2023-04-03T07:52:06;5.82;;;2.65;;
23232;SDS011;11785;49.500;8.288;2023-04-03T07:54:33;5.68;;;2.20;;
23232;SDS011;11785;49.500;8.288;2023-04-03T07:56:59;5.15;;;2.45;;
23232;SDS011;11785;49.500;8.288;2023-04-03T07:59:25;6.25;;;2.50;;
23232;SDS011;11785;49.500;8.288;2023-04-03T08:01:50;6.18;;;2.80;;
23232;SDS011;11785;49.500;8.288;2023-04-03T08:04:16;4.13;;;2.58;;
23232;SDS011;11785;49.500;8.288;2023-04-03T08:06:42;5.03;;;2.55;;
23232;SDS011;11785;49.500;8.288;2023-04-03T08:09:07;4.38;;;2.47;;
23232;SDS011;11785;49.500;8.288;2023-04-03T08:11:33;7.75;;;2.30;;
23232;SDS011;11785;49.500;8.288;2023-04-03T08:13:58;5.90;;;2.80;;
23232;SDS011;11785;49.500;8.288;2023-04-03T08:16:24;7.32;;;2.70;;
23232;SDS011;11785;49.500;8.288;2023-04-03T08:18:52;4.78;;;2.63;;
23232;SDS011;11785;49.500;8.288;2023-04-03T08:21:17;8.45;;;3.30;;
23232;SDS011;11785;49.500;8.288;2023-04-03T08:23:43;6.70;;;3.58;;
23232;SDS011;11785;49.500;8.288;2023-04-03T08:26:10;4.13;;;2.40;;
23232;SDS011;11785;49.500;8.288;2023-04-03T08:28:40;4.60;;;2.47;;
23232;SDS011;11785;49.500;8.288;2023-04-03T08:31:07;6.90;;;2.63;;
23232;SDS011;11785;49.500;8.288;2023-04-03T08:33:36;6.28;;;1.95;;
23232;SDS011;11785;49.500;8.288;2023-04-03T08:36:03;3.60;;;1.73;;
23232;SDS011;11785;49.500;8.288;2023-04-03T08:38:30;3.58;;;1.40;;
23232;SDS011;11785;49.500;8.288;2023-04-03T08:41:16;3.60;;;1.70;;
23232;SDS011;11785;49.500;8.288;2023-04-03T08:46:53;2.45;;;1.38;;
23232;SDS011;11785;49.500;8.288;2023-04-03T08:49:50;5.50;;;2.22;;
23232;SDS011;11785;49.500;8.288;2023-04-03T08:52:36;5.13;;;1.63;;
23232;SDS011;11785;49.500;8.288;2023-04-03T08:55:25;5.50;;;1.70;;
23232;SDS011;11785;49.500;8.288;2023-04-03T08:57:53;6.30;;;1.40;;
23232;SDS011;11785;49.500;8.288;2023-04-03T09:00:25;3.22;;;1.30;;
23232;SDS011;11785;49.500;8.288;2023-04-03T09:02:55;3.08;;;1.52;;
23232;SDS011;11785;49.500;8.288;2023-04-03T09:05:42;2.78;;;1.70;;
23232;SDS011;11785;49.500;8.288;2023-04-03T09:10:43;5.38;;;1.60;;
23232;SDS011;11785;49.500;8.288;2023-04-03T09:13:22;2.67;;;1.20;;
23232;SDS011;11785;49.500;8.288;2023-04-03T09:21:46;3.15;;;1.10;;
23232;SDS011;11785;49.500;8.288;2023-04-03T09:24:14;2.63;;;1.20;;
23232;SDS011;11785;49.500;8.288;2023-04-03T09:26:43;3.00;;;1.10;;
23232;SDS011;11785;49.500;8.288;2023-04-03T09:29:21;5.50;;;1.27;;
23232;SDS011;11785;49.500;8.288;2023-04-03T09:31:49;3.58;;;1.17;;
23232;SDS011;11785;49.500;8.288;2023-04-03T09:36:52;3.03;;;1.30;;
23232;SDS011;11785;49.500;8.288;2023-04-03T09:39:23;2.88;;;1.30;;
23232;SDS011;11785;49.500;8.288;2023-04-03T09:45:50;3.95;;;1.65;;
23232;SDS011;11785;49.500;8.288;2023-04-03T09:48:38;5.80;;;1.85;;
23232;SDS011;11785;49.500;8.288;2023-04-03T09:53:35;2.90;;;1.60;;
23232;SDS011;11785;49.500;8.288;2023-04-03T09:58:44;3.33;;;1.23;;
23232;SDS011;11785;49.500;8.288;2023-04-03T10:01:25;3.75;;;1.30;;
23232;SDS011;11785;49.500;8.288;2023-04-03T10:04:09;3.63;;;1.40;;
23232;SDS011;11785;49.500;8.288;2023-04-03T10:06:43;2.28;;;1.40;;
23232;SDS011;11785;49.500;8.288;2023-04-03T10:11:57;3.22;;;1.48;;
23232;SDS011;11785;49.500;8.288;2023-04-03T10:14:22;6.35;;;1.33;;
23232;SDS011;11785;49.500;8.288;2023-04-03T10:16:51;1.88;;;1.00;;
23232;SDS011;11785;49.500;8.288;2023-04-03T10:22:08;4.82;;;1.30;;
23232;SDS011;11785;49.500;8.288;2023-04-03T10:27:13;3.97;;;1.15;;
23232;SDS011;11785;49.500;8.288;2023-04-03T10:29:51;3.13;;;1.08;;
23232;SDS011;11785;49.500;8.288;2023-04-03T10:32:50;1.83;;;1.17;;
23232;SDS011;11785;49.500;8.288;2023-04-03T10:35:39;1.88;;;1.10;;
23232;SDS011;11785;49.500;8.288;2023-04-03T10:41:12;1.75;;;1.13;;
23232;SDS011;11785;49.500;8.288;2023-04-03T10:43:44;5.35;;;1.33;;
23232;SDS011;11785;49.500;8.288;2023-04-03T10:46:15;4.50;;;1.40;;
23232;SDS011;11785;49.500;8.288;2023-04-03T10:49:10;3.13;;;1.40;;
23232;SDS011;11785;49.500;8.288;2023-04-03T10:51:58;8.50;;;2.42;;
23232;SDS011;11785;49.500;8.288;2023-04-03T10:54:42;2.70;;;1.33;;
23232;SDS011;11785;49.500;8.288;2023-04-03T10:57:14;6.95;;;1.23;;
23232;SDS011;11785;49.500;8.288;2023-04-03T10:59:50;5.78;;;1.73;;
23232;SDS011;11785;49.500;8.288;2023-04-03T11:02:24;2.35;;;1.30;;
23232;SDS011;11785;49.500;8.288;2023-04-03T11:04:59;3.08;;;0.93;;
23232;SDS011;11785;49.500;8.288;2023-04-03T11:07:46;4.57;;;1.27;;
23232;SDS011;11785;49.500;8.288;2023-04-03T11:10:23;2.60;;;1.63;;
23232;SDS011;11785;49.500;8.288;2023-04-03T11:13:30;2.08;;;0.98;;
23232;SDS011;11785;49.500;8.288;2023-04-03T11:16:14;3.10;;;1.23;;
23232;SDS011;11785;49.500;8.288;2023-04-03T11:18:47;2.55;;;1.30;;
23232;SDS011;11785;49.500;8.288;2023-04-03T11:21:19;2.42;;;1.00;;
23232;SDS011;11785;49.500;8.288;2023-04-03T11:23:48;2.70;;;1.20;;
23232;SDS011;11785;49.500;8.288;2023-04-03T11:26:19;1.55;;;1.08;;
23232;SDS011;11785;49.500;8.288;2023-04-03T11:28:52;2.58;;;1.30;;
23232;SDS011;11785;49.500;8.288;2023-04-03T11:39:29;3.72;;;1.30;;
23232;SDS011;11785;49.500;8.288;2023-04-03T11:44:40;2.35;;;1.40;;
23232;SDS011;11785;49.500;8.288;2023-04-03T11:47:07;3.80;;;1.50;;
23232;SDS011;11785;49.500;8.288;2023-04-03T11:52:56;5.30;;;1.00;;
23232;SDS011;11785;49.500;8.288;2023-04-03T12:05:48;3.20;;;1.20;;
23232;SDS011;11785;49.500;8.288;2023-04-03T12:08:16;1.67;;;1.30;;
23232;SDS011;11785;49.500;8.288;2023-04-03T12:13:33;3.45;;;1.13;;
23232;SDS011;11785;49.500;8.288;2023-04-03T12:16:00;3.72;;;1.70;;
23232;SDS011;11785;49.500;8.288;2023-04-03T12:21:21;2.15;;;1.17;;
23232;SDS011;11785;49.500;8.288;2023-04-03T12:26:48;5.47;;;1.58;;
23232;SDS011;11785;49.500;8.288;2023-04-03T12:29:27;2.30;;;1.20;;
23232;SDS011;11785;49.500;8.288;2023-04-03T12:45:26;3.65;;;1.50;;
23232;SDS011;11785;49.500;8.288;2023-04-03T12:47:53;4.22;;;1.40;;
23232;SDS011;11785;49.500;8.288;2023-04-03T12:50:27;3.15;;;1.15;;
23232;SDS011;11785;49.500;8.288;2023-04-03T12:53:06;2.00;;;1.30;;
23232;SDS011;11785;49.500;8.288;2023-04-03T12:55:37;3.05;;;1.27;;
23232;SDS011;11785;49.500;8.288;2023-04-03T12:58:16;3.38;;;1.05;;
23232;SDS011;11785;49.500;8.288;2023-04-03T13:03:53;2.72;;;1.67;;
23232;SDS011;11785;49.500;8.288;2023-04-03T13:06:21;4.07;;;1.52;;
23232;SDS011;11785;49.500;8.288;2023-04-03T13:08:50;5.95;;;1.55;;
23232;SDS011;11785;49.500;8.288;2023-04-03T13:11:22;4.88;;;1.63;;
23232;SDS011;11785;49.500;8.288;2023-04-03T13:13:56;3.10;;;1.13;;
23232;SDS011;11785;49.500;8.288;2023-04-03T13:16:28;2.53;;;1.20;;
23232;SDS011;11785;49.500;8.288;2023-04-03T13:18:55;5.32;;;1.10;;
23232;SDS011;11785;49.500;8.288;2023-04-03T13:21:25;1.75;;;1.10;;
23232;SDS011;11785;49.500;8.288;2023-04-03T13:23:58;2.60;;;1.30;;
23232;SDS011;11785;49.500;8.288;2023-04-03T13:26:28;2.15;;;1.15;;
23232;SDS011;11785;49.500;8.288;2023-04-03T13:28:57;1.58;;;1.20;;
23232;SDS011;11785;49.500;8.288;2023-04-03T13:31:29;3.13;;;1.27;;
23232;SDS011;11785;49.500;8.288;2023-04-03T13:37:19;2.38;;;1.00;;
23232;SDS011;11785;49.500;8.288;2023-04-03T13:42:45;2.60;;;1.25;;
23232;SDS011;11785;49.500;8.288;2023-04-03T13:45:24;1.52;;;1.05;;
23232;SDS011;11785;49.500;8.288;2023-04-03T13:48:06;2.80;;;1.13;;
23232;SDS011;11785;49.500;8.288;2023-04-03T13:50:49;3.70;;;1.58;;
23232;SDS011;11785;49.500;8.288;2023-04-03T13:53:18;3.40;;;1.08;;
23232;SDS011;11785;49.500;8.288;2023-04-03T13:58:52;2.70;;;1.50;;
23232;SDS011;11785;49.500;8.288;2023-04-03T14:01:46;5.00;;;1.77;;
23232;SDS011;11785;49.500;8.288;2023-04-03T14:04:22;2.40;;;1.20;;
23232;SDS011;11785;49.500;8.288;2023-04-03T14:06:49;2.10;;;1.10;;
23232;SDS011;11785;49.500;8.288;2023-04-03T14:09:15;1.85;;;1.00;;
23232;SDS011;11785;49.500;8.288;2023-04-03T14:11:42;2.90;;;1.42;;
23232;SDS011;11785;49.500;8.288;2023-04-03T14:14:12;2.70;;;0.95;;
23232;SDS011;11785;49.500;8.288;2023-04-03T14:16:41;2.30;;;1.30;;
23232;SDS011;11785;49.500;8.288;2023-04-03T14:19:14;4.00;;;1.17;;
23232;SDS011;11785;49.500;8.288;2023-04-03T14:21:44;2.53;;;1.45;;
23232;SDS011;11785;49.500;8.288;2023-04-03T14:24:10;3.08;;;1.30;;
23232;SDS011;11785;49.500;8.288;2023-04-03T14:26:37;5.68;;;2.00;;
23232;SDS011;11785;49.500;8.288;2023-04-03T14:29:02;7.90;;;3.83;;
23232;SDS011;11785;49.500;8.288;2023-04-03T14:31:28;6.10;;;2.72;;
23232;SDS011;11785;49.500;8.288;2023-04-03T14:33:53;2.17;;;1.20;;
23232;SDS011;11785;49.500;8.288;2023-04-03T14:36:21;4.00;;;1.42;;
23232;SDS011;11785;49.500;8.288;2023-04-03T14:38:51;2.70;;;1.38;;
23232;SDS011;11785;49.500;8.288;2023-04-03T14:41:18;2.50;;;1.40;;
23232;SDS011;11785;49.500;8.288;2023-04-03T14:43:46;2.65;;;1.38;;
23232;SDS011;11785;49.500;8.288;2023-04-03T14:46:17;2.80;;;1.52;;
23232;SDS011;11785;49.500;8.288;2023-04-03T14:48:46;2.08;;;1.17;;
23232;SDS011;11785;49.500;8.288;2023-04-03T14:51:12;1.58;;;1.20;;
23232;SDS011;11785;49.500;8.288;2023-04-03T14:53:40;2.25;;;1.63;;
23232;SDS011;11785;49.500;8.288;2023-04-03T14:56:14;2.42;;;1.30;;
23232;SDS011;11785;49.500;8.288;2023-04-03T14:58:47;2.95;;;1.50;;
23232;SDS011;11785;49.500;8.288;2023-04-03T15:01:15;2.10;;;1.30;;
23232;SDS011;11785;49.500;8.288;2023-04-03T15:03:42;2.42;;;1.25;;
23232;SDS011;11785;49.500;8.288;2023-04-03T15:06:11;2.05;;;1.50;;
23232;SDS011;11785;49.500;8.288;2023-04-03T15:08:38;1.85;;;1.38;;
23232;SDS011;11785;49.500;8.288;2023-04-03T15:11:06;2.53;;;1.50;;
23232;SDS011;11785;49.500;8.288;2023-04-03T15:13:31;4.78;;;1.23;;
23232;SDS011;11785;49.500;8.288;2023-04-03T15:15:57;2.63;;;1.50;;
23232;SDS011;11785;49.500;8.288;2023-04-03T15:18:24;2.25;;;1.23;;
23232;SDS011;11785;49.500;8.288;2023-04-03T15:20:51;3.15;;;1.48;;
23232;SDS011;11785;49.500;8.288;2023-04-03T15:23:18;3.25;;;1.67;;
23232;SDS011;11785;49.500;8.288;2023-04-03T15:25:45;2.35;;;1.15;;
23232;SDS011;11785;49.500;8.288;2023-04-03T15:28:16;3.95;;;1.60;;
23232;SDS011;11785;49.500;8.288;2023-04-03T15:33:11;1.88;;;1.10;;
23232;SDS011;11785;49.500;8.288;2023-04-03T15:35:36;2.13;;;1.40;;
23232;SDS011;11785;49.500;8.288;2023-04-03T15:38:02;2.08;;;1.40;;
23232;SDS011;11785;49.500;8.288;2023-04-03T15:40:27;1.67;;;1.25;;
23232;SDS011;11785;49.500;8.288;2023-04-03T15:42:53;2.50;;;1.30;;
23232;SDS011;11785;49.500;8.288;2023-04-03T15:45:19;1.77;;;1.30;;
23232;SDS011;11785;49.500;8.288;2023-04-03T15:47:46;2.80;;;1.70;;
23232;SDS011;11785;49.500;8.288;2023-04-03T15:50:11;3.92;;;1.75;;
23232;SDS011;11785;49.500;8.288;2023-04-03T15:52:37;3.65;;;1.40;;
23232;SDS011;11785;49.500;8.288;2023-04-03T15:55:03;2.90;;;1.08;;
23232;SDS011;11785;49.500;8.288;2023-04-03T15:57:29;4.43;;;1.50;;
23232;SDS011;11785;49.500;8.288;2023-04-03T15:59:55;5.43;;;1.23;;
23232;SDS011;11785;49.500;8.288;2023-04-03T16:02:21;1.67;;;1.30;;
23232;SDS011;11785;49.500;8.288;2023-04-03T16:04:47;3.00;;;1.08;;
23232;SDS011;11785;49.500;8.288;2023-04-03T16:07:13;2.22;;;1.40;;
23232;SDS011;11785;49.500;8.288;2023-04-03T16:09:38;1.98;;;0.90;;
23232;SDS011;11785;49.500;8.288;2023-04-03T16:12:04;3.78;;;1.38;;
23232;SDS011;11785;49.500;8.288;2023-04-03T16:14:29;2.97;;;1.50;;
23232;SDS011;11785;49.500;8.288;2023-04-03T16:16:56;1.77;;;1.30;;
23232;SDS011;11785;49.500;8.288;2023-04-03T16:19:22;2.38;;;1.40;;
23232;SDS011;11785;49.500;8.288;2023-04-03T16:21:48;5.13;;;1.60;;
23232;SDS011;11785;49.500;8.288;2023-04-03T16:24:14;1.83;;;1.23;;
23232;SDS011;11785;49.500;8.288;2023-04-03T16:26:40;4.32;;;1.35;;
23232;SDS011;11785;49.500;8.288;2023-04-03T16:29:05;3.10;;;1.17;;
23232;SDS011;11785;49.500;8.288;2023-04-03T16:31:31;4.50;;;1.55;;
23232;SDS011;11785;49.500;8.288;2023-04-03T16:33:58;1.60;;;1.38;;
23232;SDS011;11785;49.500;8.288;2023-04-03T16:36:24;3.65;;;1.30;;
23232;SDS011;11785;49.500;8.288;2023-04-03T16:38:50;1.48;;;1.13;;
23232;SDS011;11785;49.500;8.288;2023-04-03T16:41:16;2.33;;;1.20;;
23232;SDS011;11785;49.500;8.288;2023-04-03T16:43:41;4.13;;;1.05;;
23232;SDS011;11785;49.500;8.288;2023-04-03T16:46:07;2.67;;;0.98;;
23232;SDS011;11785;49.500;8.288;2023-04-03T16:48:33;3.33;;;1.10;;